Time;durP1;ratioP1;P1;durP2;ratioP2;P2;SDS_P1;SDS_P2;PMS_P1;PMS_P2;Temp;Humidity;BMP_temperature;BMP_pressure;BME280_temperature;BME280_humidity;BME280_pressure;Samples;Min_cycle;Max_cycle;Signal;HPM_P1;HPM_P2
2022/08/18 00:00:40;;;;;;;9.60;6.10;;;;;;;22.29;60.23;98814.22;5198392;28;20049;-73
2022/08/18 00:03:35;;;;;;;9.85;6.75;;;;;;;21.96;61.85;98815.34;5189313;28;20045;-74
2022/08/18 00:06:45;;;;;;;9.95;7.20;;;;;;;22.27;61.00;98814.44;5202265;28;20056;-74
2022/08/18 00:09:37;;;;;;;9.02;6.30;;;;;;;22.46;60.81;98801.78;5202203;28;20045;-74
2022/08/18 00:12:31;;;;;;;12.07;6.63;;;;;;;22.09;62.83;98810.88;5189244;28;20061;-74
2022/08/18 00:15:22;;;;;;;9.50;7.15;;;;;;;22.67;61.19;98797.78;5187172;28;20076;-74
2022/08/18 00:18:12;;;;;;;12.43;7.15;;;;;;;22.19;62.63;98786.91;5202081;28;20109;-74
2022/08/18 00:21:03;;;;;;;12.93;7.95;;;;;;;21.98;64.26;98801.59;5200072;28;20063;-74
2022/08/18 00:23:53;;;;;;;10.95;7.13;;;;;;;21.80;65.08;98797.00;5202241;28;20045;-75
2022/08/18 00:26:43;;;;;;;11.43;7.30;;;;;;;21.91;64.69;98800.84;5201969;28;20531;-73
2022/08/18 00:29:37;;;;;;;9.77;7.40;;;;;;;21.86;64.49;98792.59;5188066;28;20515;-73
2022/08/18 00:32:32;;;;;;;11.70;7.40;;;;;;;21.42;66.41;98800.63;5198497;28;20053;-75
2022/08/18 00:35:32;;;;;;;11.00;7.65;;;;;;;21.70;65.84;98802.09;5192519;28;20580;-75
2022/08/18 00:38:22;;;;;;;10.02;7.70;;;;;;;21.55;66.21;98789.72;5205215;28;20064;-74
2022/08/18 00:41:14;;;;;;;16.33;8.40;;;;;;;21.46;66.82;98796.47;5205677;28;20092;-73
2022/08/18 00:44:04;;;;;;;12.68;8.00;;;;;;;21.42;66.26;98789.81;5205973;28;20077;-74
2022/08/18 00:46:54;;;;;;;13.50;8.88;;;;;;;21.32;67.50;98794.84;5204503;28;20132;-74
2022/08/18 00:49:49;;;;;;;11.80;8.55;;;;;;;21.53;67.38;98796.41;5204400;28;20080;-74
2022/08/18 00:52:40;;;;;;;13.77;8.48;;;;;;;21.79;65.55;98790.78;5190653;28;20111;-74
2022/08/18 00:55:32;;;;;;;12.02;8.77;;;;;;;21.43;65.84;98734.84;5205697;28;20064;-74
2022/08/18 00:58:51;;;;;;;10.95;8.35;;;;;;;21.66;65.92;98793.59;5205440;28;20450;-74
2022/08/18 01:01:43;;;;;;;10.00;7.90;;;;;;;21.57;66.22;98801.13;5205331;28;20057;-74
2022/08/18 01:04:37;;;;;;;10.02;8.00;;;;;;;21.55;67.02;98797.00;5205587;28;20061;-74
2022/08/18 01:07:46;;;;;;;12.32;8.25;;;;;;;21.67;66.07;98799.81;5194393;28;20056;-73
2022/08/18 01:10:39;;;;;;;15.82;8.90;;;;;;;21.73;66.31;98797.06;5204816;28;20057;-74
2022/08/18 01:13:31;;;;;;;12.85;8.30;;;;;;;21.63;67.20;98793.22;5194728;28;20435;-73
2022/08/18 01:23:11;;;;;;;10.43;8.80;;;;;;;21.64;66.37;98779.50;5203732;28;20199;-74
2022/08/18 01:26:05;;;;;;;16.35;9.45;;;;;;;21.68;66.50;98777.19;5196610;28;20057;-75
2022/08/18 01:29:03;;;;;;;12.25;9.25;;;;;;;21.62;65.74;98775.34;5204057;28;20128;-74
2022/08/18 01:31:54;;;;;;;16.17;9.27;;;;;;;21.65;66.96;98769.53;5203629;28;20060;-74
2022/08/18 01:34:48;;;;;;;15.35;10.02;;;;;;;21.65;67.08;98766.81;5204563;28;20056;-73
2022/08/18 01:37:39;;;;;;;13.32;10.07;;;;;;;21.61;67.46;98758.34;5204528;28;20056;-74
2022/08/18 01:40:31;;;;;;;14.40;9.50;;;;;;;21.50;67.33;98756.38;5200431;28;20658;-74
2022/08/18 01:43:41;;;;;;;13.10;9.07;;;;;;;21.43;67.89;98742.94;5192472;28;20052;-74
2022/08/18 01:46:34;;;;;;;14.32;10.77;;;;;;;21.53;68.29;98732.47;5204414;28;20056;-73
2022/08/18 01:49:27;;;;;;;14.07;10.57;;;;;;;21.53;67.62;98731.66;5184321;28;20057;-74
2022/08/18 01:52:20;;;;;;;13.10;10.30;;;;;;;21.46;67.08;98720.94;5195810;28;20151;-74
2022/08/18 01:55:10;;;;;;;15.35;10.70;;;;;;;21.41;67.82;98714.53;5204570;28;20048;-74
2022/08/18 01:58:06;;;;;;;13.18;10.32;;;;;;;21.44;67.72;98709.53;5193141;28;20060;-74
2022/08/18 02:01:00;;;;;;;16.90;10.80;;;;;;;21.52;68.05;98717.34;5201280;28;20135;-75
2022/08/18 02:03:54;;;;;;;15.55;10.55;;;;;;;21.47;67.88;98709.09;5204529;28;20136;-74
2022/08/18 02:07:08;;;;;;;14.40;10.45;;;;;;;21.35;67.93;98697.34;5203592;28;20523;-73
2022/08/18 02:09:59;;;;;;;11.43;9.57;;;;;;;21.37;67.77;98697.16;5203602;28;20041;-74
2022/08/18 02:12:50;;;;;;;16.42;10.90;;;;;;;21.35;68.18;98706.28;5202874;28;20793;-74
2022/08/18 02:15:41;;;;;;;16.98;10.90;;;;;;;21.39;67.96;98709.38;5190782;28;20080;-74
2022/08/18 02:18:35;;;;;;;13.25;10.35;;;;;;;21.24;68.81;98709.66;5203125;28;20068;-73
2022/08/18 02:21:37;;;;;;;16.13;10.82;;;;;;;21.21;68.26;98709.28;5189518;28;20610;-74
2022/08/18 02:24:28;;;;;;;14.07;11.38;;;;;;;21.20;69.50;98713.03;5204380;28;20064;-74
2022/08/18 02:27:18;;;;;;;15.95;12.77;;;;;;;21.15;68.73;98696.66;5203823;28;20049;-74
2022/08/18 02:30:12;;;;;;;19.23;12.93;;;;;;;21.13;69.92;98696.06;5204102;28;20056;-75
2022/08/18 02:33:04;;;;;;;21.05;13.05;;;;;;;21.24;68.32;98698.06;5184811;28;20633;-74
2022/08/18 02:35:54;;;;;;;15.48;12.27;;;;;;;21.25;68.96;98689.72;5191787;28;20049;-74
2022/08/18 02:38:44;;;;;;;15.32;11.55;;;;;;;21.07;69.10;98678.91;5203723;28;20046;-75
2022/08/18 02:41:43;;;;;;;20.85;11.68;;;;;;;20.95;71.79;98699.50;5203110;28;20049;-75
2022/08/18 02:44:34;;;;;;;21.58;11.52;;;;;;;21.22;70.51;98698.25;5203837;28;20053;-75
2022/08/18 02:47:24;;;;;;;16.13;10.93;;;;;;;21.23;70.03;98696.41;5202077;28;20488;-75
2022/08/18 02:50:21;;;;;;;15.32;12.35;;;;;;;21.31;69.77;98699.63;5199103;28;20045;-75
2022/08/18 02:53:22;;;;;;;16.50;12.35;;;;;;;21.26;70.88;98696.78;5200133;28;20053;-74
2022/08/18 02:59:31;;;;;;;14.65;11.30;;;;;;;21.27;68.70;98695.75;5200633;28;20127;-74
2022/08/18 03:02:22;;;;;;;14.77;11.65;;;;;;;21.37;68.97;98703.38;5202745;28;20053;-74
2022/08/18 03:05:13;;;;;;;15.75;12.45;;;;;;;21.39;69.05;98700.44;5194216;28;20061;-74
2022/08/18 03:08:03;;;;;;;16.23;12.20;;;;;;;21.41;68.94;98696.47;5194551;28;20119;-75
2022/08/18 03:10:54;;;;;;;15.50;11.98;;;;;;;21.44;69.07;98706.81;5202507;28;20050;-75
2022/08/18 03:13:45;;;;;;;15.82;11.50;;;;;;;21.44;68.91;98704.13;5202938;28;20058;-75
2022/08/18 03:16:39;;;;;;;18.42;12.70;;;;;;;21.54;68.66;98709.84;5203060;28;20053;-74
2022/08/18 03:19:43;;;;;;;18.70;12.90;;;;;;;21.41;68.54;98718.06;5190342;28;20057;-74
2022/08/18 03:22:37;;;;;;;15.77;12.57;;;;;;;21.38;68.65;98718.50;5200230;28;20053;-75
2022/08/18 03:25:28;;;;;;;18.23;11.25;;;;;;;21.39;68.07;98690.50;5200372;28;20065;-75
2022/08/18 03:28:19;;;;;;;13.18;10.75;;;;;;;21.27;68.62;98703.00;5202659;28;20143;-74
2022/08/18 03:31:13;;;;;;;13.45;10.57;;;;;;;21.14;68.35;98684.25;5202361;28;20052;-74
2022/08/18 03:34:04;;;;;;;13.75;10.88;;;;;;;21.21;69.21;98698.50;5202748;28;20081;-74
2022/08/18 03:36:55;;;;;;;16.75;10.85;;;;;;;21.06;68.76;98683.47;5202361;28;20496;-74
2022/08/18 03:39:45;;;;;;;13.73;10.30;;;;;;;21.26;68.34;98688.72;5200342;28;20526;-74
2022/08/18 03:42:36;;;;;;;14.25;11.13;;;;;;;21.17;67.54;98681.09;5201032;28;20057;-74
2022/08/18 03:45:27;;;;;;;13.85;10.57;;;;;;;21.14;69.15;98678.84;5188650;28;20052;-75
2022/08/18 03:48:17;;;;;;;14.82;11.13;;;;;;;21.26;68.03;98686.00;5201295;28;20512;-74
2022/08/18 03:51:10;;;;;;;14.13;11.07;;;;;;;21.27;67.92;98693.03;5200947;28;20053;-74
2022/08/18 03:54:02;;;;;;;15.60;11.48;;;;;;;21.23;68.46;98686.44;5202400;28;20438;-74
2022/08/18 03:56:54;;;;;;;16.27;11.88;;;;;;;21.23;68.21;98683.75;5200676;28;20045;-75
2022/08/18 03:59:45;;;;;;;19.10;11.30;;;;;;;21.17;68.57;98681.09;5202382;28;20412;-75
2022/08/18 04:02:35;;;;;;;16.98;11.60;;;;;;;21.16;68.74;98684.81;5201743;28;20053;-74
2022/08/18 04:05:25;;;;;;;15.25;10.93;;;;;;;21.06;68.73;98679.97;5205391;28;20404;-73
2022/08/18 04:08:15;;;;;;;12.52;9.93;;;;;;;21.01;68.50;98683.28;5205614;28;20051;-74
2022/08/18 04:11:06;;;;;;;13.70;10.85;;;;;;;21.14;68.85;98674.28;5192021;28;20053;-74
2022/08/18 04:13:56;;;;;;;13.65;10.82;;;;;;;20.97;68.62;98663.22;5205071;28;20082;-74
2022/08/18 04:16:47;;;;;;;13.80;10.77;;;;;;;21.03;68.51;98672.31;5205704;28;20053;-73
2022/08/18 04:19:38;;;;;;;15.20;11.18;;;;;;;20.91;69.44;98655.19;5205542;28;20072;-74
2022/08/18 04:22:32;;;;;;;13.95;11.15;;;;;;;21.13;68.88;98664.56;5205553;28;20156;-74
2022/08/18 04:25:22;;;;;;;17.17;12.63;;;;;;;21.11;68.91;98664.75;5206287;28;20052;-75
2022/08/18 04:28:12;;;;;;;16.48;12.15;;;;;;;21.18;68.64;98674.66;5206269;28;20522;-74
2022/08/18 04:31:08;;;;;;;15.60;11.95;;;;;;;21.09;68.43;98674.94;5199831;28;20045;-74
2022/08/18 04:34:00;;;;;;;20.73;12.15;;;;;;;20.93;69.48;98680.06;5205713;28;20720;-74
2022/08/18 04:36:53;;;;;;;15.05;12.23;;;;;;;21.01;69.08;98688.69;5205854;28;20049;-74
2022/08/18 04:39:44;;;;;;;17.15;12.15;;;;;;;20.95;68.73;98670.69;5205370;28;20053;-75
2022/08/18 04:42:35;;;;;;;15.98;12.98;;;;;;;21.05;68.96;98687.19;5205176;28;20056;-74
2022/08/18 04:45:32;;;;;;;14.60;11.93;;;;;;;21.08;68.75;98696.72;5205728;28;20534;-74
2022/08/18 04:48:22;;;;;;;14.43;11.50;;;;;;;21.02;68.41;98698.41;5212655;22;20068;-72
2022/08/18 04:51:15;;;;;;;14.68;12.10;;;;;;;21.05;69.07;98697.97;5203497;28;20076;-72
2022/08/18 04:54:25;;;;;;;17.10;12.45;;;;;;;21.11;68.76;98698.97;5205989;28;20497;-72
2022/08/18 04:57:19;;;;;;;14.15;11.25;;;;;;;21.09;68.14;98701.91;5191822;28;20054;-72
2022/08/18 05:00:12;;;;;;;18.92;12.27;;;;;;;21.11;68.63;98713.28;5185293;28;20045;-72
2022/08/18 05:03:02;;;;;;;18.37;12.67;;;;;;;21.24;68.49;98709.66;5197296;28;20054;-72
2022/08/18 05:05:54;;;;;;;19.60;13.18;;;;;;;21.16;69.20;98717.19;5183751;28;20081;-72
2022/08/18 05:08:47;;;;;;;16.38;12.57;;;;;;;21.25;68.92;98726.66;5184863;28;20136;-72
2022/08/18 05:11:38;;;;;;;18.67;14.13;;;;;;;21.26;69.00;98722.94;5182711;28;20058;-72
2022/08/18 05:14:28;;;;;;;18.50;13.65;;;;;;;21.25;68.52;98730.19;5185019;28;20128;-72
2022/08/18 05:17:18;;;;;;;17.23;12.90;;;;;;;21.25;69.08;98726.66;5182817;28;20053;-72
2022/08/18 05:20:09;;;;;;;16.98;12.57;;;;;;;21.26;68.81;98731.03;5182808;28;20068;-72
2022/08/18 05:23:00;;;;;;;19.25;12.20;;;;;;;21.27;68.33;98735.38;5184173;28;20104;-72
2022/08/18 05:25:56;;;;;;;15.50;11.15;;;;;;;21.29;67.94;98731.41;5184337;28;20060;-72
2022/08/18 05:28:47;;;;;;;18.45;11.80;;;;;;;21.44;67.33;98738.38;5183990;28;20128;-72
2022/08/18 05:31:37;;;;;;;14.68;10.73;;;;;;;21.51;66.63;98726.47;5184170;28;20415;-72
2022/08/18 05:34:27;;;;;;;18.17;11.73;;;;;;;21.40;67.38;98719.13;5183439;28;20176;-71
2022/08/18 05:37:34;;;;;;;20.95;12.40;;;;;;;21.64;68.23;98713.91;5187707;28;20675;-72
2022/08/18 05:40:25;;;;;;;17.58;12.55;;;;;;;21.41;68.63;98703.75;5196507;28;20429;-72
2022/08/18 05:43:15;;;;;;;13.73;11.18;;;;;;;21.69;67.48;98711.38;5184090;28;20176;-72
2022/08/18 05:46:06;;;;;;;17.80;11.55;;;;;;;21.55;67.37;98716.88;5184199;28;20500;-72
2022/08/18 05:48:57;;;;;;;15.60;11.52;;;;;;;21.75;67.57;98715.88;5190507;28;20049;-72
2022/08/18 05:51:59;;;;;;;17.08;12.45;;;;;;;21.85;67.68;98716.19;5204301;28;20172;-72
2022/08/18 05:58:19;;;;;;;14.00;11.27;;;;;;;22.46;64.86;98704.50;5180859;28;20060;-72
2022/08/18 06:01:17;;;;;;;16.02;11.75;;;;;;;22.53;64.92;98704.44;5183614;28;20053;-72
2022/08/18 06:04:19;;;;;;;14.65;11.38;;;;;;;22.48;64.68;98693.47;5183932;28;20522;-72
2022/08/18 06:07:15;;;;;;;18.40;11.25;;;;;;;22.40;65.10;98691.09;5171573;28;20566;-72
2022/08/18 06:10:07;;;;;;;14.48;10.98;;;;;;;22.58;64.11;98706.44;5182741;28;20061;-72
2022/08/18 06:13:00;;;;;;;12.57;9.95;;;;;;;22.57;62.07;98712.91;5179982;28;20060;-72
2022/08/18 06:16:10;;;;;;;11.88;9.38;;;;;;;22.54;63.49;98705.25;5183522;28;20115;-72
2022/08/18 06:19:17;;;;;;;12.20;10.00;;;;;;;22.58;62.64;98715.34;5195899;28;20065;-72
2022/08/18 06:22:27;;;;;;;14.82;10.70;;;;;;;22.70;62.25;98713.53;5182829;28;20057;-72
2022/08/18 06:25:40;;;;;;;12.10;9.70;;;;;;;22.79;63.13;98719.44;5186106;28;20423;-72
2022/08/18 06:28:56;;;;;;;15.55;10.77;;;;;;;22.78;62.04;98730.47;5182948;28;20064;-72
2022/08/18 06:32:04;;;;;;;13.27;9.85;;;;;;;22.74;62.93;98735.53;5174967;28;20049;-72
2022/08/18 06:35:14;;;;;;;13.25;9.68;;;;;;;22.94;63.07;98754.19;5168069;28;20072;-72
2022/08/18 06:41:38;;;;;;;14.23;9.63;;;;;;;23.13;61.93;98727.94;5174496;28;20095;-72
2022/08/18 06:44:41;;;;;;;18.23;9.95;;;;;;;23.38;60.81;98747.50;5182435;28;20100;-72
2022/08/18 06:48:07;;;;;;;15.13;8.68;;;;;;;23.44;58.97;98740.31;5192762;28;20053;-72
2022/08/18 06:51:07;;;;;;;15.43;9.60;;;;;;;23.32;60.32;98740.31;5204622;28;20085;-72
2022/08/18 06:54:04;;;;;;;13.15;10.48;;;;;;;23.35;61.08;98730.94;5181703;28;20115;-72
2022/08/18 06:56:56;;;;;;;12.93;10.43;;;;;;;23.35;60.68;98731.75;5179816;28;20176;-72
2022/08/18 06:59:55;;;;;;;13.32;10.73;;;;;;;23.30;61.15;98712.66;5180158;28;20586;-72
2022/08/18 07:03:14;;;;;;;14.43;10.35;;;;;;;23.00;61.93;98725.44;5179891;28;20080;-72
2022/08/18 07:06:08;;;;;;;13.00;9.88;;;;;;;23.47;61.10;98733.63;5182381;28;20056;-72
2022/08/18 07:09:22;;;;;;;13.83;11.40;;;;;;;23.47;60.93;98728.22;5181401;28;20419;-71
2022/08/18 07:12:19;;;;;;;14.20;11.50;;;;;;;23.18;60.91;98725.38;5181123;28;20169;-71
2022/08/18 07:15:11;;;;;;;15.18;10.45;;;;;;;23.03;60.94;98727.66;5183726;28;20057;-72
2022/08/18 07:18:06;;;;;;;13.52;10.48;;;;;;;23.55;60.78;98736.81;5182147;28;20651;-71
2022/08/18 07:20:59;;;;;;;13.73;10.55;;;;;;;23.76;61.06;98732.72;5181771;28;20143;-71
2022/08/18 07:23:59;;;;;;;14.02;11.05;;;;;;;23.89;59.57;98737.91;5181729;28;20048;-72
2022/08/18 07:27:19;;;;;;;16.75;10.48;;;;;;;23.82;59.11;98753.47;5181826;28;20073;-73
2022/08/18 07:30:34;;;;;;;13.32;11.02;;;;;;;23.67;59.90;98753.91;5181892;28;20089;-70
2022/08/18 07:33:25;;;;;;;14.13;11.68;;;;;;;23.85;60.02;98761.09;5181149;28;20056;-71
2022/08/18 07:36:20;;;;;;;17.33;11.52;;;;;;;24.08;59.87;98762.16;5182145;28;20160;-72
2022/08/18 07:39:19;;;;;;;16.33;11.02;;;;;;;24.26;60.36;98763.91;5181832;28;20057;-73
2022/08/18 07:42:17;;;;;;;12.55;8.52;;;;;;;23.78;59.38;98773.94;5181746;28;20045;-72
2022/08/18 07:45:43;;;;;;;11.80;9.35;;;;;;;24.06;57.66;98766.97;5181679;28;20064;-71
2022/08/18 07:48:33;;;;;;;10.70;8.85;;;;;;;24.15;58.22;98762.84;5185320;28;20455;-71
2022/08/18 07:51:46;;;;;;;8.77;6.70;;;;;;;23.85;56.95;98768.41;5181578;28;20071;-69
2022/08/18 07:55:02;;;;;;;11.80;6.75;;;;;;;24.04;57.24;98777.22;5182092;28;20140;-72
2022/08/18 07:58:26;;;;;;;9.45;7.35;;;;;;;23.76;57.38;98772.53;5180993;28;20077;-71
2022/08/18 08:01:27;;;;;;;10.52;7.03;;;;;;;23.58;58.32;98778.84;5193247;28;20050;-71
2022/08/18 08:04:48;;;;;;;10.88;6.68;;;;;;;23.22;58.74;98786.06;5180041;28;20089;-71
2022/08/18 08:07:56;;;;;;;9.15;6.57;;;;;;;23.27;58.50;98788.88;5180568;28;20054;-70
2022/08/18 08:11:18;;;;;;;9.45;6.50;;;;;;;22.92;59.88;98786.84;5180754;28;20088;-73
2022/08/18 08:14:47;;;;;;;9.43;7.03;;;;;;;22.78;59.74;98777.28;5193459;28;20503;-73
2022/08/18 08:18:20;;;;;;;8.27;6.75;;;;;;;23.03;60.20;98779.88;5181050;28;20060;-73
2022/08/18 08:21:16;;;;;;;9.55;7.40;;;;;;;23.47;59.70;98761.50;5168711;28;20054;-74
2022/08/18 08:24:15;;;;;;;11.68;7.40;;;;;;;23.44;59.58;98784.47;5181246;28;20661;-72
2022/08/18 08:27:34;;;;;;;9.70;7.22;;;;;;;23.38;59.03;98790.81;5192733;28;20065;-75
2022/08/18 08:30:25;;;;;;;7.57;6.72;;;;;;;23.51;59.16;98799.75;5179890;28;20054;-72
2022/08/18 08:33:25;;;;;;;9.10;6.78;;;;;;;23.52;59.32;98802.25;5179476;28;20165;-72
2022/08/18 08:36:27;;;;;;;9.50;7.22;;;;;;;23.36;59.26;98803.72;5181499;28;20163;-73
2022/08/18 08:39:23;;;;;;;12.88;7.28;;;;;;;23.45;58.38;98791.53;5183898;28;20507;-72
2022/08/18 08:42:26;;;;;;;9.25;7.15;;;;;;;23.26;59.35;98764.78;5180485;28;20111;-73
2022/08/18 08:45:32;;;;;;;10.63;7.20;;;;;;;23.18;59.51;98744.31;5181894;28;20077;-73
2022/08/18 08:48:27;;;;;;;9.60;7.20;;;;;;;22.85;60.95;98739.34;5176828;28;20069;-73
2022/08/18 08:51:29;;;;;;;;;;;;;;;23.13;60.34;98744.16;5182346;28;20132;-72
2022/08/18 08:54:24;;;;;;;10.05;7.30;;;;;;;23.29;59.37;98745.38;5182741;28;19944;-73
2022/08/18 08:57:16;;;;;;;11.80;7.13;;;;;;;23.74;59.26;98751.13;5183050;28;20514;-73
2022/08/18 09:00:10;;;;;;;10.48;6.78;;;;;;;23.46;59.74;98749.03;5182898;28;20064;-72
2022/08/18 09:03:42;;;;;;;9.60;7.13;;;;;;;24.02;58.19;98746.84;5183951;28;20052;-72
2022/08/18 09:07:04;;;;;;;11.52;6.82;;;;;;;24.28;57.96;98750.94;5183938;28;20199;-72
2022/08/18 09:10:22;;;;;;;9.45;6.68;;;;;;;24.28;57.14;98775.34;5184044;28;20081;-72
2022/08/18 09:13:34;;;;;;;8.07;6.47;;;;;;;24.41;57.28;98771.56;5180654;28;20068;-72
2022/08/18 09:16:51;;;;;;;7.85;6.88;;;;;;;24.28;57.93;98751.78;5183245;28;20123;-71
2022/08/18 09:19:59;;;;;;;8.43;6.90;;;;;;;24.98;56.70;98728.22;5182738;28;20504;-71
2022/08/18 09:23:04;;;;;;;8.73;6.80;;;;;;;25.42;55.85;98704.03;5181868;28;20053;-71
2022/08/18 09:26:01;;;;;;;9.60;6.63;;;;;;;25.95;53.48;98708.91;5179218;28;20558;-71
2022/08/18 09:29:00;;;;;;;9.73;6.55;;;;;;;25.22;55.01;98686.34;5181178;28;20510;-71
2022/08/18 09:32:21;;;;;;;10.52;6.95;;;;;;;26.90;51.65;98693.19;5183554;28;20050;-72
2022/08/18 09:35:31;;;;;;;8.18;6.70;;;;;;;26.54;51.71;98707.50;5182344;28;20219;-71
2022/08/18 09:41:48;;;;;;;9.07;6.82;;;;;;;25.39;54.89;98735.19;5181878;28;20038;-70
2022/08/18 09:44:47;;;;;;;10.55;7.45;;;;;;;25.85;52.71;98738.66;5196641;28;20420;-72
2022/08/18 09:47:38;;;;;;;10.93;7.38;;;;;;;26.02;52.82;98742.16;5182753;28;20431;-71
2022/08/18 09:50:55;;;;;;;13.07;7.15;;;;;;;26.37;51.94;98745.59;5183466;28;20053;-71
2022/08/18 09:53:46;;;;;;;9.43;7.35;;;;;;;26.85;51.51;98749.44;5185697;28;20087;-69
2022/08/18 09:56:52;;;;;;;13.90;7.43;;;;;;;27.45;50.72;98739.41;5182007;28;20554;-69
2022/08/18 09:59:46;;;;;;;10.45;7.00;;;;;;;28.95;48.94;98747.06;5181306;28;20558;-71
2022/08/18 10:02:39;;;;;;;9.48;7.22;;;;;;;29.32;46.94;98742.50;5176872;28;20068;-71
2022/08/18 10:05:30;;;;;;;10.10;6.82;;;;;;;30.41;45.00;98743.75;5183655;28;20053;-72
2022/08/18 10:08:34;;;;;;;11.18;6.45;;;;;;;30.22;44.81;98753.66;5183469;28;20515;-72
2022/08/18 10:11:42;;;;;;;8.93;7.45;;;;;;;28.87;45.28;98750.31;5183088;28;20528;-71
2022/08/18 10:14:44;;;;;;;13.18;8.00;;;;;;;28.02;47.44;98728.69;5182434;28;20686;-72
2022/08/18 10:17:47;;;;;;;9.20;7.95;;;;;;;28.57;46.63;98727.31;5182048;28;20041;-72
2022/08/18 10:20:56;;;;;;;10.48;7.45;;;;;;;28.18;47.12;98723.31;5175719;28;20818;-72
2022/08/18 10:23:48;;;;;;;12.52;7.32;;;;;;;28.87;45.77;98701.19;5169257;28;20104;-73
2022/08/18 10:27:11;;;;;;;10.45;7.55;;;;;;;28.31;46.21;98698.28;5182815;28;20097;-70
2022/08/18 10:30:43;;;;;;;9.32;6.70;;;;;;;29.73;46.69;98691.41;5183135;28;20095;-72
2022/08/18 10:34:01;;;;;;;9.02;7.18;;;;;;;29.81;43.50;98693.59;5183279;28;20062;-70
2022/08/18 10:37:17;;;;;;;10.07;7.68;;;;;;;30.24;42.43;98685.84;5182792;28;20053;-70
2022/08/18 10:40:08;;;;;;;11.90;7.63;;;;;;;29.61;43.58;98682.72;5169094;28;20060;-71
2022/08/18 10:43:10;;;;;;;;;;;;;;;28.05;47.02;98661.94;5182611;28;20147;-71
2022/08/18 10:46:24;;;;;;;13.00;8.10;;;;;;;26.91;50.87;98637.69;5183112;28;20587;-70
2022/08/18 10:49:24;;;;;;;11.02;7.45;;;;;;;28.75;46.34;98632.44;5182849;28;20046;-71
2022/08/18 10:52:31;;;;;;;15.80;9.65;;;;;;;28.79;44.92;98631.63;5184912;28;20046;-70
2022/08/18 10:55:34;;;;;;;11.88;9.15;;;;;;;27.07;48.47;98646.00;5183634;28;20325;-72
2022/08/18 10:59:03;;;;;;;13.98;9.70;;;;;;;28.28;45.77;98649.78;5169632;28;20060;-70
2022/08/18 11:02:05;;;;;;;12.52;9.52;;;;;;;28.22;46.38;98651.66;5181948;28;20653;-71
2022/08/18 11:04:57;;;;;;;10.85;8.27;;;;;;;29.06;45.34;98646.94;5195687;28;20424;-71
2022/08/18 11:08:03;;;;;;;14.32;8.48;;;;;;;28.78;44.67;98621.81;5180054;28;20054;-70
2022/08/18 11:11:08;;;;;;;12.13;8.50;;;;;;;29.79;42.56;98624.72;5185942;28;20484;-70
2022/08/18 11:14:22;;;;;;;14.73;9.73;;;;;;;28.87;44.06;98624.78;5165868;28;20072;-70
2022/08/18 11:17:27;;;;;;;11.00;8.93;;;;;;;29.06;44.66;98633.28;5179750;28;20046;-71
2022/08/18 11:20:22;;;;;;;12.30;9.15;;;;;;;28.41;45.04;98632.09;5182529;28;20058;-70
2022/08/18 11:23:16;;;;;;;12.40;7.95;;;;;;;28.85;43.93;98648.81;5182696;28;20556;-71
2022/08/18 11:26:16;;;;;;;8.25;7.20;;;;;;;28.64;44.20;98649.88;5182141;28;20064;-71
2022/08/18 11:29:34;;;;;;;11.40;8.23;;;;;;;28.78;44.11;98642.81;5173289;28;20061;-72
2022/08/18 11:32:37;;;;;;;10.13;8.02;;;;;;;29.10;43.63;98647.22;5208795;28;20046;-72
2022/08/18 11:35:48;;;;;;;8.82;7.28;;;;;;;28.77;45.22;98652.06;5181817;28;20056;-72
2022/08/18 11:38:38;;;;;;;12.73;9.10;;;;;;;27.15;47.76;98646.38;5181984;28;20091;-72
2022/08/18 11:41:31;;;;;;;12.90;8.00;;;;;;;27.99;47.00;98652.91;5180237;28;20050;-70
2022/08/18 11:44:38;;;;;;;14.82;7.93;;;;;;;28.25;46.21;98653.84;5181518;28;20614;-73
2022/08/18 11:47:28;;;;;;;14.63;8.10;;;;;;;28.28;46.05;98655.22;5181919;28;20045;-71
2022/08/18 11:50:27;;;;;;;14.30;7.65;;;;;;;28.93;42.16;98642.81;5181617;28;20084;-71
2022/08/18 11:53:34;;;;;;;12.95;7.57;;;;;;;29.25;42.54;98631.66;5181664;28;20072;-71
2022/08/18 11:56:30;;;;;;;11.95;6.90;;;;;;;29.25;42.52;98612.53;5182436;28;20204;-71
2022/08/18 11:59:34;;;;;;;11.07;7.40;;;;;;;29.46;42.50;98613.31;5180176;28;20048;-71
2022/08/18 12:02:44;;;;;;;11.23;8.23;;;;;;;29.61;41.86;98611.69;5174812;28;20080;-74
2022/08/18 12:05:47;;;;;;;9.40;7.32;;;;;;;28.89;43.01;98602.69;5167155;28;20167;-73
2022/08/18 12:08:54;;;;;;;10.85;7.57;;;;;;;29.23;41.14;98587.41;5181947;28;20053;-71
2022/08/18 12:12:00;;;;;;;10.07;7.85;;;;;;;29.49;42.33;98590.91;5182128;28;20045;-72
2022/08/18 12:15:04;;;;;;;14.30;7.30;;;;;;;29.08;42.58;98587.44;5178172;28;20120;-71
2022/08/18 12:18:05;;;;;;;11.15;8.05;;;;;;;28.28;44.34;98582.44;5173964;28;20451;-75
2022/08/18 12:20:57;;;;;;;11.00;8.45;;;;;;;27.67;45.44;98575.91;5181999;28;20236;-71
2022/08/18 12:23:48;;;;;;;10.68;8.95;;;;;;;28.22;44.95;98558.16;5181931;28;20072;-71
2022/08/18 12:26:41;;;;;;;11.65;8.90;;;;;;;27.93;45.38;98574.13;5197493;28;20147;-72
2022/08/18 12:29:36;;;;;;;13.32;8.63;;;;;;;28.44;44.33;98583.28;5180783;28;20495;-72
2022/08/18 12:32:47;;;;;;;10.38;8.80;;;;;;;29.22;42.41;98576.78;5212310;28;20068;-70
2022/08/18 12:35:46;;;;;;;14.90;9.02;;;;;;;29.62;42.13;98570.41;5187005;28;20428;-71
2022/08/18 12:38:42;;;;;;;11.00;8.43;;;;;;;29.59;42.09;98570.13;5186625;28;20052;-69
2022/08/18 12:41:32;;;;;;;;;;;;;;;28.72;43.50;98560.13;5187159;28;20053;-70
2022/08/18 12:44:22;;;;;;;13.95;8.77;;;;;;;28.08;43.72;98546.94;5189455;28;20442;-73
2022/08/18 12:47:22;;;;;;;10.68;7.47;;;;;;;28.85;44.02;98558.78;5184690;28;20333;-68
2022/08/18 12:50:13;;;;;;;14.68;6.80;;;;;;;29.59;41.75;98556.47;5183883;28;20069;-69
2022/08/18 12:53:03;;;;;;;10.02;7.22;;;;;;;29.55;41.73;98549.94;5183606;28;20187;-68
2022/08/18 12:55:54;;;;;;;10.75;7.10;;;;;;;29.59;40.26;98553.72;5183687;28;20497;-67
2022/08/18 12:58:43;;;;;;;8.90;6.65;;;;;;;29.84;40.94;98534.53;5183631;28;20057;-68
2022/08/18 13:01:36;;;;;;;11.13;6.75;;;;;;;29.14;40.71;98525.44;5183230;28;20085;-69
2022/08/18 13:04:28;;;;;;;9.10;6.65;;;;;;;29.54;41.18;98513.59;5181554;28;20169;-70
2022/08/18 13:07:20;;;;;;;8.88;6.80;;;;;;;29.24;41.19;98520.00;5183478;28;20050;-72
2022/08/18 13:10:11;;;;;;;10.20;7.28;;;;;;;29.32;40.99;98511.22;5184631;28;20056;-70
2022/08/18 13:13:21;;;;;;;11.65;7.35;;;;;;;29.11;42.11;98507.72;5183631;28;20046;-70
2022/08/18 13:16:18;;;;;;;9.43;6.70;;;;;;;28.99;41.68;98497.06;5182684;28;20727;-70
2022/08/18 13:19:28;;;;;;;7.60;6.35;;;;;;;29.19;41.81;98489.97;5209944;28;20467;-70
2022/08/18 13:22:22;;;;;;;10.32;6.60;;;;;;;29.32;41.30;98489.38;5183105;28;20096;-70
2022/08/18 13:25:21;;;;;;;10.48;6.05;;;;;;;29.43;40.72;98471.84;5183431;28;20057;-71
2022/08/18 13:28:22;;;;;;;8.15;6.40;;;;;;;29.43;41.32;98455.44;5183524;28;20065;-70
2022/08/18 13:31:19;;;;;;;7.75;6.07;;;;;;;28.89;42.05;98464.34;5183185;28;20057;-70
2022/08/18 13:34:12;;;;;;;8.75;6.75;;;;;;;29.35;41.08;98449.78;5182642;28;20045;-70
2022/08/18 13:37:09;;;;;;;8.75;6.30;;;;;;;29.00;41.13;98471.44;5182344;28;20313;-70
2022/08/18 13:40:02;;;;;;;7.07;6.38;;;;;;;29.13;41.09;98474.69;5189170;28;20071;-71
2022/08/18 13:42:56;;;;;;;6.82;5.35;;;;;;;28.38;41.99;98460.81;5182233;28;20045;-71
2022/08/18 13:45:49;;;;;;;7.45;6.68;;;;;;;29.05;41.89;98472.53;5183512;28;20053;-71
2022/08/18 13:48:44;;;;;;;10.90;6.38;;;;;;;29.10;40.47;98480.69;5183195;28;20188;-71
2022/08/18 13:51:36;;;;;;;9.38;6.18;;;;;;;29.40;40.39;98474.31;5183107;28;20686;-71
2022/08/18 13:54:31;;;;;;;8.18;6.25;;;;;;;29.55;40.75;98484.38;5183944;28;20160;-72
2022/08/18 13:57:24;;;;;;;9.23;5.70;;;;;;;29.45;39.41;98480.56;5182544;28;20148;-70
2022/08/18 14:00:19;;;;;;;7.97;5.80;;;;;;;29.78;39.15;98474.72;5182745;28;20058;-73
2022/08/18 14:03:22;;;;;;;9.30;6.13;;;;;;;29.70;40.30;98470.66;5183000;28;20269;-71
2022/08/18 14:06:32;;;;;;;7.55;6.05;;;;;;;29.65;40.13;98465.22;5182870;28;20069;-71
2022/08/18 14:09:24;;;;;;;8.70;5.90;;;;;;;29.78;39.04;98459.16;5182708;28;20361;-74